Time;durP1;ratioP1;P1;durP2;ratioP2;P2;SDS_P1;SDS_P2;PMS_P1;PMS_P2;Temp;Humidity;BMP_temperature;BMP_pressure;BME280_temperature;BME280_humidity;BME280_pressure;Samples;Min_cycle;Max_cycle;Signal;HPM_P1;HPM_P2
2023/03/23 00:00:56;;;;;;;8.05;4.62;;;;;;;6.97;98.59;98578.44;4484314;31;20092;-66
2023/03/23 00:03:26;;;;;;;8.52;4.95;;;;;;;6.89;99.12;98592.06;4484202;31;20122;-66
2023/03/23 00:05:52;;;;;;;9.98;5.35;;;;;;;6.79;99.68;98591.91;4484301;31;20461;-66
2023/03/23 00:08:20;;;;;;;9.18;4.87;;;;;;;6.68;100.00;98584.13;4484177;31;20119;-66
2023/03/23 00:10:56;;;;;;;11.77;5.28;;;;;;;6.65;100.00;98579.12;4483938;31;20469;-66
2023/03/23 00:13:26;;;;;;;9.82;4.30;;;;;;;6.53;100.00;98581.72;4483866;31;20153;-66
2023/03/23 00:15:52;;;;;;;9.05;4.93;;;;;;;6.43;100.00;98575.53;4485430;31;20414;-66
2023/03/23 00:18:22;;;;;;;14.95;4.55;;;;;;;6.31;100.00;98571.25;4486038;31;20092;-66
2023/03/23 00:20:53;;;;;;;10.63;5.10;;;;;;;6.25;100.00;98571.72;4486077;32;20152;-66
2023/03/23 00:23:22;;;;;;;11.73;5.18;;;;;;;6.10;100.00;98571.94;4486172;31;20118;-66
2023/03/23 00:25:52;;;;;;;11.82;5.12;;;;;;;6.01;100.00;98580.38;4486063;31;20092;-66
2023/03/23 00:28:24;;;;;;;16.90;5.43;;;;;;;5.96;100.00;98569.47;4486186;31;20147;-66
2023/03/23 00:31:00;;;;;;;11.05;5.20;;;;;;;5.90;100.00;98572.53;4484776;32;20123;-66
2023/03/23 00:33:29;;;;;;;9.80;4.60;;;;;;;5.85;100.00;98563.28;4486295;31;20155;-66
2023/03/23 00:35:55;;;;;;;10.20;5.05;;;;;;;5.78;100.00;98559.47;4484827;32;20092;-66
2023/03/23 00:38:23;;;;;;;11.30;4.93;;;;;;;5.74;100.00;98567.59;4486036;31;20597;-66
2023/03/23 00:40:49;;;;;;;9.57;4.75;;;;;;;5.64;100.00;98563.06;4485994;31;20443;-66
2023/03/23 00:43:17;;;;;;;11.50;4.50;;;;;;;5.62;100.00;98570.16;4486136;31;20555;-66
2023/03/23 00:45:44;;;;;;;11.65;5.85;;;;;;;5.53;100.00;98562.19;4485949;31;20100;-66
2023/03/23 00:48:14;;;;;;;8.93;5.03;;;;;;;5.49;100.00;98556.41;4486223;31;20092;-66
2023/03/23 00:50:40;;;;;;;11.88;4.70;;;;;;;5.45;100.00;98562.75;4485603;31;20119;-66
2023/03/23 00:53:07;;;;;;;11.48;5.07;;;;;;;5.43;100.00;98555.06;4485980;31;20104;-66
2023/03/23 00:55:33;;;;;;;10.85;5.20;;;;;;;5.42;100.00;98548.22;4485716;31;20466;-66
2023/03/23 00:58:00;;;;;;;11.05;5.25;;;;;;;5.46;100.00;98557.44;4485043;32;20135;-66
2023/03/23 01:00:26;;;;;;;10.05;4.90;;;;;;;5.42;100.00;98552.56;4486033;31;20221;-66
2023/03/23 01:02:53;;;;;;;9.25;4.95;;;;;;;5.46;100.00;98551.41;4485959;31;20118;-66
2023/03/23 01:05:20;;;;;;;8.43;4.45;;;;;;;5.47;100.00;98556.50;4485826;31;20135;-66
2023/03/23 01:07:46;;;;;;;10.15;4.87;;;;;;;5.47;100.00;98545.28;4484757;32;20521;-66
2023/03/23 01:10:15;;;;;;;8.57;4.87;;;;;;;5.42;100.00;98543.03;4485601;31;20097;-66
2023/03/23 01:12:44;;;;;;;11.40;4.32;;;;;;;5.40;100.00;98542.28;4485948;31;20126;-66
2023/03/23 01:15:15;;;;;;;8.85;4.68;;;;;;;5.39;100.00;98542.41;4485790;31;20117;-66
2023/03/23 01:17:43;;;;;;;8.88;4.12;;;;;;;5.34;100.00;98542.72;4486007;31;20151;-66
2023/03/23 01:20:10;;;;;;;9.00;4.30;;;;;;;5.36;100.00;98540.88;4485910;31;20574;-66
2023/03/23 01:22:38;;;;;;;7.60;4.18;;;;;;;5.38;100.00;98546.78;4485665;31;20093;-66
2023/03/23 01:25:05;;;;;;;8.77;4.20;;;;;;;5.37;100.00;98542.50;4485633;32;20088;-66
2023/03/23 01:27:31;;;;;;;9.32;3.97;;;;;;;5.44;100.00;98538.53;4484863;31;20646;-66
2023/03/23 01:29:57;;;;;;;7.43;3.90;;;;;;;5.46;100.00;98538.44;4485599;31;20101;-66
2023/03/23 01:32:24;;;;;;;9.30;3.87;;;;;;;5.51;100.00;98526.78;4485562;31;20084;-66
2023/03/23 01:34:50;;;;;;;12.48;5.10;;;;;;;5.50;100.00;98530.31;4485979;31;20112;-66
2023/03/23 01:37:16;;;;;;;13.88;4.57;;;;;;;5.52;100.00;98527.59;4485837;31;20092;-66
2023/03/23 01:39:43;;;;;;;26.58;4.35;;;;;;;5.46;100.00;98528.03;4485949;31;20464;-66
2023/03/23 01:42:09;;;;;;;10.13;4.18;;;;;;;5.49;100.00;98527.81;4485631;31;20104;-66
2023/03/23 01:44:35;;;;;;;9.07;4.00;;;;;;;5.59;100.00;98523.63;4485704;32;20088;-66
2023/03/23 01:47:02;;;;;;;6.85;3.70;;;;;;;5.66;100.00;98530.03;4485845;31;20126;-66
2023/03/23 01:49:32;;;;;;;13.25;4.82;;;;;;;5.60;100.00;98527.03;4485788;31;20147;-66
2023/03/23 01:52:13;;;;;;;13.75;4.78;;;;;;;5.55;100.00;98522.16;4485655;31;20434;-66
2023/03/23 01:54:40;;;;;;;7.80;3.72;;;;;;;5.47;100.00;98527.91;4471613;32;20375;-66
2023/03/23 01:57:11;;;;;;;11.95;3.85;;;;;;;5.44;100.00;98529.94;4485977;31;20159;-66
2023/03/23 01:59:37;;;;;;;6.32;3.75;;;;;;;5.40;100.00;98526.69;4484778;32;20147;-66
2023/03/23 02:02:04;;;;;;;9.85;4.40;;;;;;;5.32;100.00;98524.66;4485492;31;20084;-66
2023/03/23 02:04:31;;;;;;;9.95;4.05;;;;;;;5.26;100.00;98526.88;4485325;31;20088;-66
2023/03/23 02:06:57;;;;;;;6.85;3.78;;;;;;;5.22;100.00;98520.22;4485358;31;20112;-66
2023/03/23 02:09:25;;;;;;;9.75;4.45;;;;;;;5.21;100.00;98513.38;4485701;31;20129;-66
2023/03/23 02:11:53;;;;;;;7.60;4.07;;;;;;;5.14;100.00;98520.78;4483803;32;20541;-66
2023/03/23 02:14:19;;;;;;;8.18;5.32;;;;;;;5.19;100.00;98520.44;4483978;32;20449;-66
2023/03/23 02:16:57;;;;;;;8.48;4.15;;;;;;;5.15;100.00;98525.03;4484050;32;20430;-66
2023/03/23 02:19:27;;;;;;;6.30;3.90;;;;;;;5.18;100.00;98530.03;4485349;32;20088;-66
2023/03/23 02:22:35;;;;;;;7.78;4.22;;;;;;;5.25;100.00;98527.81;4485238;31;20100;-66
2023/03/23 02:25:05;;;;;;;9.23;4.35;;;;;;;5.20;100.00;98520.34;4485040;32;20096;-66
2023/03/23 02:27:52;;;;;;;9.68;4.30;;;;;;;5.19;100.00;98531.66;4484065;32;20099;-66
2023/03/23 02:30:34;;;;;;;7.12;3.92;;;;;;;5.20;100.00;98529.91;4484058;32;20128;-66
2023/03/23 02:33:27;;;;;;;9.50;4.50;;;;;;;5.19;100.00;98530.84;4485327;31;20510;-66
2023/03/23 02:35:58;;;;;;;8.43;4.20;;;;;;;5.21;100.00;98531.53;4485327;32;20088;-66
2023/03/23 02:39:02;;;;;;;8.07;4.43;;;;;;;5.23;100.00;98525.31;4484084;32;20441;-66
2023/03/23 02:41:32;;;;;;;7.93;4.82;;;;;;;5.19;100.00;98534.25;4435666;32;20459;-66
2023/03/23 02:43:59;;;;;;;10.20;4.95;;;;;;;5.20;100.00;98532.50;4423456;32;20238;-66
2023/03/23 02:46:26;;;;;;;9.82;4.90;;;;;;;5.24;100.00;98533.94;4423469;32;20131;-66
2023/03/23 02:48:53;;;;;;;9.23;4.60;;;;;;;5.26;100.00;98537.25;4423002;32;20117;-66
2023/03/23 02:51:20;;;;;;;10.60;4.70;;;;;;;5.20;100.00;98532.50;4423275;32;20334;-66
2023/03/23 02:53:49;;;;;;;10.57;5.28;;;;;;;5.25;100.00;98535.59;4423073;32;20155;-66
2023/03/23 02:56:15;;;;;;;10.07;4.93;;;;;;;5.25;100.00;98531.22;4423282;32;20088;-66
2023/03/23 02:58:41;;;;;;;9.20;4.93;;;;;;;5.24;100.00;98541.72;4423508;32;20443;-66
2023/03/23 03:01:16;;;;;;;9.02;5.10;;;;;;;5.24;100.00;98532.19;4436130;32;20110;-66
2023/03/23 03:03:43;;;;;;;8.63;4.93;;;;;;;5.24;100.00;98537.37;4423502;32;20125;-66
2023/03/23 03:06:28;;;;;;;13.68;5.12;;;;;;;5.24;100.00;98539.97;4435884;32;20159;-66
2023/03/23 03:09:07;;;;;;;14.45;4.82;;;;;;;5.25;100.00;98536.41;4423350;32;20543;-66
2023/03/23 03:11:34;;;;;;;8.85;5.12;;;;;;;5.40;100.00;98537.09;4412405;32;20109;-66
2023/03/23 03:14:10;;;;;;;10.73;5.03;;;;;;;5.44;100.00;98529.94;4404077;32;20094;-66
2023/03/23 03:16:38;;;;;;;8.95;5.28;;;;;;;5.53;100.00;98539.66;4452692;32;20085;-66
2023/03/23 03:19:18;;;;;;;10.77;5.20;;;;;;;5.63;100.00;98529.41;4484928;31;20118;-66
2023/03/23 03:21:47;;;;;;;11.25;5.40;;;;;;;5.72;100.00;98533.94;4483561;32;20202;-66
2023/03/23 03:24:18;;;;;;;10.63;6.03;;;;;;;5.97;100.00;98538.19;4483764;32;20096;-66
2023/03/23 03:26:47;;;;;;;13.02;5.90;;;;;;;5.99;100.00;98532.88;4483730;32;20151;-66
2023/03/23 03:29:22;;;;;;;9.63;5.28;;;;;;;5.97;100.00;98537.37;4483742;32;20659;-66
2023/03/23 03:31:55;;;;;;;27.92;6.82;;;;;;;6.05;100.00;98542.81;4484781;31;20097;-66
2023/03/23 03:34:24;;;;;;;18.23;6.35;;;;;;;6.09;100.00;98548.66;4483680;32;20163;-66
2023/03/23 03:36:52;;;;;;;13.88;6.18;;;;;;;6.09;100.00;98535.63;4484763;31;20180;-66
2023/03/23 03:39:20;;;;;;;13.90;6.22;;;;;;;6.00;100.00;98540.56;4483260;32;20149;-66
2023/03/23 03:41:47;;;;;;;11.60;5.95;;;;;;;6.04;100.00;98546.34;4484466;31;20209;-66
2023/03/23 03:44:14;;;;;;;9.48;5.62;;;;;;;5.91;100.00;98541.22;4484792;31;20119;-66
2023/03/23 03:46:41;;;;;;;16.55;6.35;;;;;;;5.76;100.00;98539.75;4484375;31;20092;-66
2023/03/23 03:49:08;;;;;;;10.27;5.95;;;;;;;5.62;100.00;98544.19;4484410;31;20092;-66
2023/03/23 03:51:35;;;;;;;16.98;5.80;;;;;;;5.49;100.00;98553.78;4485271;32;20161;-66
2023/03/23 03:54:02;;;;;;;15.82;7.32;;;;;;;5.35;100.00;98552.19;4485335;32;20088;-66
2023/03/23 03:56:28;;;;;;;13.10;6.10;;;;;;;5.40;100.00;98549.25;4486486;32;20206;-66
2023/03/23 03:58:57;;;;;;;13.88;5.78;;;;;;;5.47;100.00;98547.88;4486509;31;20088;-66
2023/03/23 04:01:23;;;;;;;10.30;5.95;;;;;;;5.35;100.00;98559.16;4486444;31;20508;-66
2023/03/23 04:03:51;;;;;;;14.25;7.07;;;;;;;5.30;100.00;98555.13;4486599;31;20621;-66
2023/03/23 04:06:18;;;;;;;11.43;5.87;;;;;;;5.37;100.00;98555.50;4486346;31;20111;-66
2023/03/23 04:08:45;;;;;;;12.45;7.07;;;;;;;5.37;100.00;98555.50;4486537;31;20127;-66
2023/03/23 04:11:13;;;;;;;12.98;6.53;;;;;;;5.41;100.00;98556.12;4486392;31;20100;-66
2023/03/23 04:13:40;;;;;;;16.08;7.57;;;;;;;5.47;100.00;98555.69;4485920;31;20443;-66
2023/03/23 04:16:08;;;;;;;14.32;6.90;;;;;;;5.54;100.00;98559.50;4486488;31;20096;-66
2023/03/23 04:18:35;;;;;;;14.45;7.15;;;;;;;5.56;100.00;98560.22;4485971;31;20104;-66
2023/03/23 04:21:02;;;;;;;12.95;6.22;;;;;;;5.51;100.00;98559.69;4486493;31;20215;-66
2023/03/23 04:23:33;;;;;;;12.48;7.30;;;;;;;5.43;100.00;98554.22;4486143;31;20084;-66
2023/03/23 04:26:00;;;;;;;16.20;7.35;;;;;;;5.33;100.00;98554.06;4485000;32;20579;-66
2023/03/23 04:28:27;;;;;;;10.90;6.25;;;;;;;5.37;100.00;98555.50;4486179;31;20085;-66
2023/03/23 04:30:55;;;;;;;18.50;8.70;;;;;;;5.40;100.00;98560.47;4486239;31;20151;-66
2023/03/23 04:33:24;;;;;;;14.87;7.45;;;;;;;5.42;100.00;98557.75;4486193;31;20180;-66
2023/03/23 04:35:54;;;;;;;14.18;7.78;;;;;;;5.45;100.00;98561.00;4486453;31;20529;-66
2023/03/23 04:38:23;;;;;;;18.77;8.85;;;;;;;5.51;100.00;98555.34;4486188;31;20156;-66
2023/03/23 04:40:52;;;;;;;23.80;12.32;;;;;;;5.55;100.00;98558.53;4486135;31;20130;-66
2023/03/23 04:43:22;;;;;;;18.77;8.30;;;;;;;5.55;100.00;98557.72;4486171;31;20100;-66
2023/03/23 04:46:02;;;;;;;16.67;8.52;;;;;;;5.39;100.00;98561.44;4486246;31;20095;-66
2023/03/23 04:48:30;;;;;;;16.15;7.47;;;;;;;5.39;100.00;98552.78;4486059;31;20092;-66
2023/03/23 04:50:59;;;;;;;18.75;7.55;;;;;;;5.30;100.00;98557.72;4486185;32;20221;-66
2023/03/23 04:53:27;;;;;;;15.13;7.62;;;;;;;5.30;100.00;98555.13;4486080;31;20501;-66
2023/03/23 04:55:54;;;;;;;12.52;6.85;;;;;;;5.25;100.00;98556.38;4486001;31;20096;-66
2023/03/23 04:58:23;;;;;;;18.23;8.30;;;;;;;5.31;100.00;98553.34;4486103;31;20108;-66
2023/03/23 05:00:50;;;;;;;22.40;10.07;;;;;;;5.45;100.00;98550.59;4486107;31;20112;-66
2023/03/23 05:03:17;;;;;;;18.37;9.00;;;;;;;5.61;100.00;98555.50;4485626;31;20093;-66
2023/03/23 05:05:46;;;;;;;18.48;8.65;;;;;;;5.76;100.00;98566.56;4485734;31;20857;-66
2023/03/23 05:08:14;;;;;;;20.55;8.10;;;;;;;5.60;100.00;98560.81;4485273;31;20130;-65
2023/03/23 05:10:41;;;;;;;17.20;7.85;;;;;;;5.76;100.00;98561.37;4478950;32;185753;-67
2023/03/23 05:13:07;;;;;;;17.80;9.25;;;;;;;5.77;100.00;98572.56;4485792;31;20595;-67
2023/03/23 05:15:33;;;;;;;18.45;9.40;;;;;;;5.85;100.00;98572.88;4475668;32;20100;-64
2023/03/23 05:18:00;;;;;;;17.98;7.93;;;;;;;5.99;100.00;98566.69;4483654;32;20127;-64
2023/03/23 05:20:26;;;;;;;18.30;7.65;;;;;;;5.94;100.00;98568.78;4484434;32;20084;-65
2023/03/23 05:22:53;;;;;;;17.05;8.02;;;;;;;5.84;100.00;98568.59;4484480;31;20167;-64
2023/03/23 05:25:19;;;;;;;21.70;8.23;;;;;;;5.94;100.00;98571.38;4482157;32;20088;-66
2023/03/23 05:27:52;;;;;;;24.85;7.95;;;;;;;6.04;100.00;98570.59;4482684;32;20445;-65
2023/03/23 05:30:22;;;;;;;15.80;6.93;;;;;;;6.25;100.00;98566.53;4483098;31;20165;-66
2023/03/23 05:32:52;;;;;;;17.45;7.75;;;;;;;6.22;100.00;98571.03;4483014;31;20100;-64
2023/03/23 05:35:20;;;;;;;14.65;7.57;;;;;;;6.29;100.00;98570.56;4484171;31;20111;-65
2023/03/23 05:37:46;;;;;;;18.30;8.30;;;;;;;6.44;100.00;98577.22;4483925;31;20150;-66
2023/03/23 05:40:13;;;;;;;25.40;7.65;;;;;;;6.67;100.00;98574.63;4482973;31;20122;-64
2023/03/23 05:42:40;;;;;;;20.33;7.72;;;;;;;6.89;100.00;98572.03;4484229;31;20495;-66
2023/03/23 05:45:10;;;;;;;17.92;7.15;;;;;;;7.15;100.00;98571.78;4482201;31;20157;-66
2023/03/23 05:47:38;;;;;;;15.85;7.62;;;;;;;7.43;100.00;98567.00;4483933;31;20124;-66
2023/03/23 05:50:06;;;;;;;15.95;6.87;;;;;;;7.74;100.00;98565.38;4480962;32;20230;-64
2023/03/23 05:52:35;;;;;;;18.02;7.60;;;;;;;7.92;100.00;98559.63;4482529;32;20122;-66
2023/03/23 05:55:03;;;;;;;17.75;6.93;;;;;;;8.26;100.00;98564.66;4483660;31;20100;-66
2023/03/23 05:57:31;;;;;;;15.98;7.90;;;;;;;8.47;99.78;98568.13;4484828;31;20105;-66
2023/03/23 05:59:59;;;;;;;21.15;7.95;;;;;;;8.64;98.24;98571.91;4483827;31;20100;-66
2023/03/23 06:02:29;;;;;;;15.75;7.00;;;;;;;8.70;96.47;98571.41;4483480;31;20100;-66
2023/03/23 06:04:57;;;;;;;13.32;7.40;;;;;;;8.75;95.89;98571.03;4483510;31;20437;-65
2023/03/23 06:07:25;;;;;;;16.30;7.70;;;;;;;8.83;95.14;98572.97;4480316;32;20108;-66
2023/03/23 06:09:52;;;;;;;19.73;8.57;;;;;;;8.92;95.42;98569.59;4481812;31;20802;-67
2023/03/23 06:12:20;;;;;;;20.77;8.73;;;;;;;9.01;94.39;98576.63;4481641;31;20171;-67
2023/03/23 06:14:48;;;;;;;20.02;7.90;;;;;;;9.03;94.42;98574.69;4482042;31;20119;-67
2023/03/23 06:17:17;;;;;;;16.92;9.43;;;;;;;9.16;93.13;98571.03;4483352;31;20161;-67
2023/03/23 06:19:46;;;;;;;14.60;8.13;;;;;;;9.20;92.87;98573.22;4484566;31;20157;-67
2023/03/23 06:22:13;;;;;;;17.90;8.85;;;;;;;9.23;91.35;98577.38;4483545;31;20444;-67
2023/03/23 06:24:40;;;;;;;17.90;9.23;;;;;;;9.44;93.06;98568.63;4483856;31;20104;-67
2023/03/23 06:27:08;;;;;;;18.30;8.20;;;;;;;9.59;89.52;98568.09;4482040;31;20948;-67
2023/03/23 06:29:35;;;;;;;23.85;9.27;;;;;;;9.77;90.55;98570.88;4475849;32;20083;-67
2023/03/23 06:32:02;;;;;;;23.80;8.05;;;;;;;9.91;88.64;98571.44;4483462;31;20130;-66
2023/03/23 06:34:30;;;;;;;16.75;7.53;;;;;;;10.09;86.33;98566.31;4483621;32;20092;-67
2023/03/23 06:36:59;;;;;;;25.60;9.07;;;;;;;10.23;86.66;98571.13;4484374;31;20097;-67
2023/03/23 06:39:25;;;;;;;20.35;7.72;;;;;;;10.35;85.55;98569.22;4483169;31;20114;-67
2023/03/23 06:41:52;;;;;;;25.50;8.82;;;;;;;10.54;83.91;98576.22;4483658;32;20163;-67
2023/03/23 06:44:19;;;;;;;25.27;8.68;;;;;;;10.63;84.32;98577.16;4483993;31;20076;-67
2023/03/23 06:46:45;;;;;;;17.33;9.15;;;;;;;10.74;82.67;98576.97;4484606;32;20422;-67
2023/03/23 06:49:13;;;;;;;21.10;8.25;;;;;;;10.94;82.05;98574.28;4484863;31;20595;-67
2023/03/23 06:51:41;;;;;;;26.92;8.27;;;;;;;11.12;84.30;98585.66;4484653;32;20537;-67
2023/03/23 06:54:07;;;;;;;38.72;8.82;;;;;;;11.24;83.04;98583.66;4482693;32;20096;-67
2023/03/23 06:56:35;;;;;;;28.92;8.32;;;;;;;11.44;80.70;98586.19;4482173;32;20548;-67
2023/03/23 06:59:03;;;;;;;32.10;8.57;;;;;;;11.57;79.62;98585.81;4482529;31;20758;-67
2023/03/23 07:01:29;;;;;;;11.85;5.95;;;;;;;11.70;80.31;98589.75;4483067;31;20547;-67
2023/03/23 07:03:56;;;;;;;20.10;7.28;;;;;;;11.82;80.37;98579.84;4478745;32;20104;-66
2023/03/23 07:06:24;;;;;;;19.58;7.20;;;;;;;11.96;78.34;98582.94;4479682;32;20104;-67
2023/03/23 07:08:53;;;;;;;14.18;7.70;;;;;;;12.13;78.54;98586.56;4480275;31;20432;-66
2023/03/23 07:11:20;;;;;;;15.80;9.18;;;;;;;12.16;74.97;98578.38;4480328;32;20145;-66
2023/03/23 07:13:47;;;;;;;24.12;7.15;;;;;;;12.31;75.11;98587.38;4480064;32;20148;-65
2023/03/23 07:16:13;;;;;;;12.98;7.65;;;;;;;12.50;75.43;98590.78;4483158;32;20153;-67
2023/03/23 07:18:39;;;;;;;13.90;6.43;;;;;;;12.55;74.59;98593.75;4483186;32;20168;-67
2023/03/23 07:21:06;;;;;;;11.27;6.05;;;;;;;12.51;69.41;98592.44;4480845;32;20115;-66
2023/03/23 07:23:32;;;;;;;26.40;6.70;;;;;;;12.61;67.84;98603.66;4481321;32;20096;-67
2023/03/23 07:26:14;;;;;;;13.35;5.97;;;;;;;12.88;71.47;98600.03;4479870;32;20142;-66
2023/03/23 07:28:46;;;;;;;16.17;6.22;;;;;;;12.96;71.09;98602.72;4483032;31;20088;-66
2023/03/23 07:31:17;;;;;;;9.68;5.05;;;;;;;13.11;66.71;98602.97;4483245;31;20117;-65
2023/03/23 07:33:43;;;;;;;10.35;5.70;;;;;;;13.23;66.93;98600.88;4484107;32;20117;-68
2023/03/23 07:36:11;;;;;;;10.07;5.85;;;;;;;13.20;64.36;98605.63;4483611;32;20551;-68
2023/03/23 07:38:37;;;;;;;10.18;5.60;;;;;;;13.20;65.58;98605.63;4482937;31;20150;-68
2023/03/23 07:41:03;;;;;;;12.52;6.80;;;;;;;13.29;67.44;98609.94;4483011;32;20092;-67
2023/03/23 07:43:31;;;;;;;15.18;6.25;;;;;;;13.31;67.10;98614.06;4483266;31;20235;-67
2023/03/23 07:46:00;;;;;;;12.80;6.87;;;;;;;13.38;69.25;98613.44;4484108;31;20135;-69
2023/03/23 07:48:27;;;;;;;13.10;7.05;;;;;;;13.34;68.10;98622.63;4483566;32;20087;-67
2023/03/23 07:50:53;;;;;;;9.70;6.40;;;;;;;13.22;68.44;98619.47;4467488;32;20444;-67
2023/03/23 07:53:22;;;;;;;12.52;7.30;;;;;;;13.41;67.94;98616.56;4469238;32;20108;-67
2023/03/23 07:55:51;;;;;;;13.75;7.35;;;;;;;13.54;66.01;98625.84;4481419;32;20180;-68
2023/03/23 07:58:19;;;;;;;14.43;7.70;;;;;;;13.57;64.31;98623.72;4477725;31;20156;-68
2023/03/23 08:00:49;;;;;;;14.87;8.75;;;;;;;13.80;67.21;98628.37;4482777;31;20529;-67
2023/03/23 08:03:16;;;;;;;17.58;8.10;;;;;;;13.64;68.57;98630.00;4483114;31;20119;-67
2023/03/23 08:05:42;;;;;;;13.50;7.47;;;;;;;13.74;67.27;98629.03;4482851;31;20112;-67
2023/03/23 08:08:09;;;;;;;11.02;6.87;;;;;;;13.69;66.48;98626.03;4483003;31;20122;-67
2023/03/23 08:10:36;;;;;;;16.12;7.43;;;;;;;13.91;66.76;98625.44;4482330;31;20104;-67
2023/03/23 08:13:03;;;;;;;12.68;7.72;;;;;;;14.13;68.57;98618.72;4480265;31;20108;-67
2023/03/23 08:15:30;;;;;;;18.10;7.82;;;;;;;14.43;68.09;98616.44;4476476;31;20126;-67
2023/03/23 08:17:58;;;;;;;18.12;7.60;;;;;;;14.52;63.53;98623.34;4473140;31;20100;-67
2023/03/23 08:20:25;;;;;;;12.75;7.68;;;;;;;14.72;65.87;98629.09;4481363;31;20144;-67
2023/03/23 08:22:54;;;;;;;13.65;7.55;;;;;;;14.84;65.06;98639.31;4480185;31;20127;-68
2023/03/23 08:25:24;;;;;;;10.95;6.78;;;;;;;14.79;65.23;98638.97;4481656;31;20163;-65
2023/03/23 08:27:51;;;;;;;14.18;7.60;;;;;;;14.86;62.34;98645.25;4483460;31;20157;-67
2023/03/23 08:30:19;;;;;;;11.77;7.22;;;;;;;15.09;64.01;98637.44;4483087;31;20110;-67
2023/03/23 08:32:46;;;;;;;11.07;6.47;;;;;;;15.22;62.55;98644.81;4481519;31;20160;-68
2023/03/23 08:35:14;;;;;;;12.43;7.22;;;;;;;15.25;59.35;98647.94;4482983;31;20389;-68
2023/03/23 08:37:42;;;;;;;11.52;7.00;;;;;;;15.27;59.37;98642.50;4480720;31;20148;-68
2023/03/23 08:40:13;;;;;;;13.27;7.57;;;;;;;15.25;60.23;98644.50;4484086;32;20147;-69
2023/03/23 08:42:44;;;;;;;12.23;7.22;;;;;;;15.35;62.01;98646.91;4484946;31;20084;-68
2023/03/23 08:45:14;;;;;;;17.35;8.13;;;;;;;15.32;62.50;98639.34;4466817;31;20108;-67
2023/03/23 08:47:42;;;;;;;11.52;7.93;;;;;;;15.27;62.62;98642.50;4468108;31;20108;-67
2023/03/23 08:50:12;;;;;;;12.70;7.90;;;;;;;15.42;63.59;98640.78;4469647;32;20112;-67
2023/03/23 08:52:41;;;;;;;11.70;7.65;;;;;;;15.61;63.12;98644.03;4471286;32;20115;-67
2023/03/23 08:55:10;;;;;;;12.65;8.02;;;;;;;15.67;63.28;98648.59;4471366;31;20119;-67
2023/03/23 08:57:37;;;;;;;21.75;7.78;;;;;;;15.87;63.31;98641.09;4470635;31;20126;-68
2023/03/23 09:00:17;;;;;;;12.30;7.37;;;;;;;16.11;63.34;98645.41;4469609;32;20100;-69
2023/03/23 09:02:48;;;;;;;13.70;7.30;;;;;;;16.17;60.28;98638.59;4470434;31;20126;-65
2023/03/23 09:05:21;;;;;;;11.32;7.20;;;;;;;16.26;58.93;98636.69;4468974;31;20104;-67
2023/03/23 09:07:56;;;;;;;9.15;6.60;;;;;;;16.36;60.32;98637.28;4481118;31;20123;-67
2023/03/23 09:10:24;;;;;;;10.70;6.45;;;;;;;16.37;58.17;98638.13;4481286;31;20162;-69
2023/03/23 09:12:52;;;;;;;13.40;7.07;;;;;;;16.47;59.43;98634.22;4485046;31;20484;-68
2023/03/23 09:15:18;;;;;;;12.95;7.12;;;;;;;16.73;60.13;98625.06;4483150;31;20116;-68
2023/03/23 09:17:48;;;;;;;13.82;7.07;;;;;;;16.85;61.10;98636.84;4482732;31;20095;-69
2023/03/23 09:20:16;;;;;;;10.80;7.50;;;;;;;16.87;59.10;98639.34;4482127;31;20131;-67
2023/03/23 09:22:44;;;;;;;9.75;6.70;;;;;;;16.91;58.68;98627.41;4485098;31;20142;-68
2023/03/23 09:25:13;;;;;;;12.50;6.60;;;;;;;16.88;56.76;98632.22;4483539;31;20151;-68
2023/03/23 09:27:41;;;;;;;16.50;6.62;;;;;;;16.77;57.76;98626.31;4483498;31;20134;-68
2023/03/23 09:30:10;;;;;;;14.48;6.65;;;;;;;17.03;58.07;98628.59;4482697;31;20579;-69
2023/03/23 09:32:37;;;;;;;11.90;6.57;;;;;;;17.27;55.45;98633.78;4483045;31;20092;-69
2023/03/23 09:35:08;;;;;;;12.68;7.30;;;;;;;17.72;56.82;98626.59;4485167;31;20100;-68
2023/03/23 09:37:35;;;;;;;10.95;6.65;;;;;;;18.17;56.00;98635.25;4481192;31;20100;-68
2023/03/23 09:40:03;;;;;;;9.15;6.55;;;;;;;18.43;53.74;98634.66;4483579;31;20134;-68
2023/03/23 09:43:08;;;;;;;10.10;7.05;;;;;;;18.66;52.89;98632.81;4480161;31;20102;-69
2023/03/23 09:45:47;;;;;;;11.00;6.60;;;;;;;18.89;53.24;98632.59;4430814;32;20297;-69
2023/03/23 09:48:33;;;;;;;15.18;6.75;;;;;;;19.33;52.59;98632.25;4426288;32;20110;-69
2023/03/23 09:51:22;;;;;;;10.95;6.15;;;;;;;19.39;50.20;98625.28;4424625;32;20219;-69
2023/03/23 09:53:53;;;;;;;11.63;6.55;;;;;;;19.71;48.57;98620.31;4427937;32;20101;-69
2023/03/23 09:56:20;;;;;;;9.25;6.25;;;;;;;19.84;50.99;98619.56;4432554;32;21021;-69
2023/03/23 09:58:58;;;;;;;8.55;5.75;;;;;;;19.88;49.37;98617.31;4429877;32;20124;-69
2023/03/23 10:02:11;;;;;;;9.27;6.07;;;;;;;19.87;46.46;98616.50;4419591;32;20130;-69
2023/03/23 10:04:46;;;;;;;11.52;6.62;;;;;;;19.82;49.67;98621.63;4384848;32;20163;-69
2023/03/23 10:07:25;;;;;;;11.55;6.60;;;;;;;20.03;46.93;98629.44;4384765;32;20178;-69
2023/03/23 10:09:54;;;;;;;10.55;6.18;;;;;;;20.10;47.03;98612.66;4387397;32;20134;-69
2023/03/23 10:12:44;;;;;;;9.57;5.97;;;;;;;20.22;47.06;98611.03;4383508;32;20512;-69
2023/03/23 10:15:19;;;;;;;13.57;6.00;;;;;;;20.33;47.13;98601.63;4374582;32;20198;-69
2023/03/23 10:17:53;;;;;;;25.37;8.82;;;;;;;20.46;47.75;98595.50;4389321;32;20141;-69
2023/03/23 10:20:28;;;;;;;8.93;5.22;;;;;;;20.59;48.96;98592.84;4375863;32;20136;-67
2023/03/23 10:23:36;;;;;;;9.25;5.03;;;;;;;20.43;46.60;98590.59;4418948;32;20132;-69
2023/03/23 10:26:21;;;;;;;9.90;4.90;;;;;;;20.32;47.08;98582.19;4360006;32;20854;-69
2023/03/23 10:28:53;;;;;;;11.05;5.15;;;;;;;20.66;46.44;98588.31;4358443;32;20198;-69
2023/03/23 10:31:24;;;;;;;5.80;4.15;;;;;;;20.81;44.78;98579.31;4359862;32;20159;-69
2023/03/23 10:33:55;;;;;;;11.82;4.47;;;;;;;20.98;44.18;98575.16;4347050;32;20150;-70
2023/03/23 10:36:26;;;;;;;6.20;3.70;;;;;;;20.99;42.88;98576.00;4358514;32;20111;-68
2023/03/23 10:39:11;;;;;;;6.25;3.25;;;;;;;20.90;44.76;98564.75;4360157;32;20216;-69
2023/03/23 10:41:38;;;;;;;4.78;2.97;;;;;;;21.08;43.40;98556.88;4391520;32;20093;-68
2023/03/23 10:44:19;;;;;;;3.50;2.70;;;;;;;20.91;43.05;98558.41;4402126;32;20191;-67
2023/03/23 10:46:50;;;;;;;5.07;2.25;;;;;;;20.94;42.11;98557.12;4402670;32;20110;-64
2023/03/23 10:49:30;;;;;;;4.62;2.40;;;;;;;20.99;41.53;98558.16;4404575;32;20195;-65
2023/03/23 10:52:06;;;;;;;3.83;2.45;;;;;;;20.87;42.32;98560.63;4391159;32;20097;-64
2023/03/23 10:54:38;;;;;;;6.50;2.25;;;;;;;20.76;42.63;98558.63;4404357;32;20098;-66
2023/03/23 10:57:30;;;;;;;4.30;2.25;;;;;;;20.72;40.88;98560.87;4382359;32;20144;-67
2023/03/23 11:00:06;;;;;;;2.95;2.40;;;;;;;20.72;40.38;98554.75;4396956;32;20557;-67
2023/03/23 11:03:17;;;;;;;3.53;2.67;;;;;;;20.81;41.59;98560.66;4433285;32;20104;-67
2023/03/23 11:05:57;;;;;;;4.72;2.30;;;;;;;21.04;41.82;98565.50;4421441;32;20101;-67
2023/03/23 11:08:38;;;;;;;3.87;2.25;;;;;;;21.32;42.18;98569.69;4417577;32;20113;-66
2023/03/23 11:11:19;;;;;;;2.45;1.90;;;;;;;21.53;41.20;98557.94;4421096;32;20147;-66
2023/03/23 11:13:47;;;;;;;8.15;2.85;;;;;;;21.47;39.48;98558.78;4433060;32;20133;-66
2023/03/23 11:16:24;;;;;;;5.12;1.83;;;;;;;21.77;41.74;98559.03;4419608;32;20139;-67
2023/03/23 11:18:52;;;;;;;11.70;2.37;;;;;;;22.13;40.93;98550.41;4432124;32;20173;-66
2023/03/23 11:21:20;;;;;;;11.45;1.95;;;;;;;22.06;39.44;98543.44;4431952;32;20113;-68
2023/03/23 11:23:57;;;;;;;5.25;1.75;;;;;;;21.88;40.59;98539.69;4427165;32;20105;-68
2023/03/23 11:26:26;;;;;;;4.10;1.90;;;;;;;21.75;40.30;98540.59;4419564;32;20101;-67
2023/03/23 11:28:58;;;;;;;2.20;1.75;;;;;;;21.90;39.57;98531.47;4431498;32;20221;-66
2023/03/23 11:31:30;;;;;;;2.65;1.80;;;;;;;21.61;39.57;98528.41;4426906;32;20131;-66
2023/03/23 11:34:13;;;;;;;2.95;2.10;;;;;;;21.61;38.46;98534.53;4419926;32;20174;-66
2023/03/23 11:36:42;;;;;;;4.85;1.60;;;;;;;21.19;39.15;98541.28;4417747;32;20101;-66
2023/03/23 11:39:48;;;;;;;3.33;1.60;;;;;;;21.09;39.51;98536.41;4414887;32;20127;-67
2023/03/23 11:42:21;;;;;;;4.78;1.83;;;;;;;20.88;41.23;98540.19;4437965;32;20143;-67
2023/03/23 11:44:47;;;;;;;2.80;1.80;;;;;;;21.00;39.88;98538.50;4447306;32;20109;-66